Time;durP1;ratioP1;P1;durP2;ratioP2;P2;SDS_P1;SDS_P2;PMS_P1;PMS_P2;Temp;Humidity;BMP_temperature;BMP_pressure;BME280_temperature;BME280_humidity;BME280_pressure;Samples;Min_cycle;Max_cycle;Signal;HPM_P1;HPM_P2
2023/01/04 00:03:30;;;;;;;0.63;0.30;;;;;;;5.88;87.52;101723.66;9933619;29;20134;-84
2023/01/04 00:08:33;;;;;;;0.28;0.28;;;;;;;5.87;87.48;101706.28;9932721;29;20057;-84
2023/01/04 00:13:35;;;;;;;0.50;0.22;;;;;;;5.83;87.55;101711.31;9933852;29;20546;-83
2023/01/04 00:18:37;;;;;;;0.47;0.20;;;;;;;5.83;87.28;101693.13;9926499;29;20176;-82
2023/01/04 00:23:40;;;;;;;1.65;0.98;;;;;;;5.86;87.19;101676.78;9928439;29;20147;-84
2023/01/04 00:28:43;;;;;;;0.30;0.30;;;;;;;5.87;87.09;101660.41;9931600;29;20043;-83
2023/01/04 00:33:56;;;;;;;0.20;0.20;;;;;;;5.94;87.02;101645.97;9931301;29;20070;-84
2023/01/04 00:39:06;;;;;;;0.20;0.20;;;;;;;5.98;87.00;101624.56;9924322;29;20054;-83
2023/01/04 00:44:10;;;;;;;1.95;0.32;;;;;;;5.92;86.78;101611.22;9929687;29;20528;-82
2023/01/04 00:49:11;;;;;;;0.10;0.10;;;;;;;5.99;86.50;101611.63;9930522;29;20058;-83
2023/01/04 00:54:14;;;;;;;0.10;0.10;;;;;;;6.06;86.71;101605.00;9939887;29;20582;-82
2023/01/04 00:59:18;;;;;;;1.25;0.30;;;;;;;6.11;86.35;101582.75;9929087;29;20524;-83
2023/01/04 01:04:22;;;;;;;1.08;0.52;;;;;;;6.16;86.33;101575.16;9929656;29;20138;-82
2023/01/04 01:09:23;;;;;;;1.20;0.20;;;;;;;6.20;86.10;101556.28;9930728;29;20107;-82
2023/01/04 01:14:25;;;;;;;0.75;0.28;;;;;;;6.26;86.08;101553.06;9929683;29;20058;-83
2023/01/04 01:19:28;;;;;;;0.65;0.32;;;;;;;6.24;85.94;101541.72;9929817;29;20043;-83
2023/01/04 01:24:30;;;;;;;1.15;0.70;;;;;;;6.33;85.63;101519.59;9929085;29;20085;-82
2023/01/04 01:29:31;;;;;;;0.22;0.22;;;;;;;6.34;85.49;101524.00;9929390;29;20066;-83
2023/01/04 01:34:33;;;;;;;0.20;0.20;;;;;;;6.36;85.65;101522.38;9929448;29;20415;-84
2023/01/04 01:39:35;;;;;;;0.30;0.30;;;;;;;6.41;85.35;101504.38;9932599;29;20100;-84
2023/01/04 01:44:45;;;;;;;0.20;0.20;;;;;;;6.41;85.35;101500.84;9933303;29;20054;-84
2023/01/04 01:49:51;;;;;;;0.10;0.10;;;;;;;6.40;85.42;101488.69;9934435;29;20047;-83
2023/01/04 01:54:58;;;;;;;0.22;0.22;;;;;;;6.47;85.30;101473.41;9937060;29;20042;-83
2023/01/04 02:00:06;;;;;;;0.63;0.40;;;;;;;6.50;85.27;101457.03;9942830;29;20050;-83
2023/01/04 02:05:13;;;;;;;0.82;0.60;;;;;;;6.54;85.01;101444.25;9940049;29;20058;-84
2023/01/04 02:10:15;;;;;;;0.63;0.43;;;;;;;6.54;85.10;101414.72;9967571;29;20138;-84
2023/01/04 02:15:18;;;;;;;0.15;0.15;;;;;;;6.53;85.28;101421.66;9969608;29;20066;-84
2023/01/04 02:20:54;;;;;;;0.25;0.25;;;;;;;6.51;85.60;101412.88;9959835;29;20062;-84
2023/01/04 02:26:43;;;;;;;0.32;0.32;;;;;;;6.42;86.20;101396.88;9929442;29;20063;-86
2023/01/04 03:06:14;;;;;;;;;;;;;;;6.33;90.04;101302.81;8167327;27;20077;-85
2023/01/04 03:06:14;;;;;;;;;;;;;;;6.27;90.57;101290.44;9928395;29;20128;-85
2023/01/04 03:16:40;;;;;;;0.40;0.40;;;;;;;6.17;92.04;101247.56;9927288;29;20078;-84
2023/01/04 03:21:44;;;;;;;0.55;0.52;;;;;;;6.14;92.57;101234.44;9925389;29;20047;-84
2023/01/04 03:37:44;;;;;;;0.30;0.30;;;;;;;6.09;94.68;101194.34;9926573;29;20047;-85
2023/01/04 03:48:29;;;;;;;;;;;;;;;6.07;95.76;101157.00;9927278;29;20139;-86
2023/01/04 03:53:36;;;;;;;0.55;0.52;;;;;;;6.13;96.12;101148.56;9930597;29;20362;-85
2023/01/04 03:58:38;;;;;;;0.95;0.45;;;;;;;6.18;96.71;101137.53;9935946;29;20237;-83
2023/01/04 04:09:01;;;;;;;0.55;0.40;;;;;;;6.28;97.31;101119.69;9937729;29;20124;-84
2023/01/04 04:14:02;;;;;;;0.57;0.25;;;;;;;6.30;97.55;101087.69;9943068;29;20059;-85
2023/01/04 04:19:04;;;;;;;0.38;0.32;;;;;;;6.36;97.78;101074.97;9941454;29;20096;-83
2023/01/04 04:24:23;;;;;;;0.22;0.22;;;;;;;6.46;98.13;101067.50;9929849;29;20154;-86
2023/01/04 04:29:25;;;;;;;0.30;0.30;;;;;;;6.48;98.34;101063.25;9930685;29;20100;-84
2023/01/04 04:34:26;;;;;;;0.60;0.60;;;;;;;6.57;98.30;101041.91;9939482;29;20498;-84
2023/01/04 04:39:28;;;;;;;0.47;0.43;;;;;;;6.61;98.58;101049.88;9936778;29;20054;-83
2023/01/04 04:44:33;;;;;;;0.65;0.50;;;;;;;6.66;98.56;101037.03;9934869;29;20629;-85
2023/01/04 04:49:35;;;;;;;0.50;0.50;;;;;;;6.69;98.82;101016.31;9933234;29;20050;-84
2023/01/04 04:54:36;;;;;;;0.38;0.38;;;;;;;6.78;99.12;101011.44;9932735;29;20230;-83
2023/01/04 04:59:40;;;;;;;1.65;0.70;;;;;;;6.85;99.07;100997.81;9936884;29;20051;-83
2023/01/04 05:04:42;;;;;;;0.75;0.65;;;;;;;6.94;99.27;100991.19;9934668;29;20111;-83
2023/01/04 05:09:43;;;;;;;0.80;0.70;;;;;;;7.02;99.51;100979.31;9934640;29;20038;-83
2023/01/04 05:14:45;;;;;;;0.77;0.50;;;;;;;7.07;99.42;100959.50;9934292;29;20063;-83
2023/01/04 05:19:47;;;;;;;1.42;1.00;;;;;;;7.10;99.38;100971.75;9938681;29;20074;-83
2023/01/04 05:24:48;;;;;;;0.60;0.60;;;;;;;7.24;99.55;100965.31;9933365;29;20059;-85
2023/01/04 05:35:10;;;;;;;;;;;;;;;7.35;99.73;100989.09;9931845;29;20146;-84
2023/01/04 05:40:12;;;;;;;0.70;0.70;;;;;;;7.43;99.84;100964.19;9934944;29;19929;-84
2023/01/04 05:45:15;;;;;;;0.90;0.68;;;;;;;7.47;99.96;100953.03;9932358;29;20146;-85
2023/01/04 05:50:19;;;;;;;0.45;0.40;;;;;;;7.73;99.84;100950.34;9916653;29;20482;-85
2023/01/04 05:55:20;;;;;;;0.45;0.45;;;;;;;7.82;100.00;100939.34;9928729;29;20476;-84
2023/01/04 06:00:22;;;;;;;0.80;0.52;;;;;;;7.96;100.00;100911.97;9928675;29;20554;-85
2023/01/04 06:05:26;;;;;;;1.10;0.77;;;;;;;8.04;99.98;100925.22;9932143;29;20134;-85
2023/01/04 06:10:28;;;;;;;0.70;0.47;;;;;;;8.02;100.00;100919.97;9927620;29;20477;-87
2023/01/04 06:15:32;;;;;;;0.28;0.28;;;;;;;8.11;99.93;100912.41;9925620;29;20066;-87
2023/01/04 06:20:49;;;;;;;0.68;0.50;;;;;;;8.16;99.77;100904.72;9926584;29;20107;-88
2023/01/04 06:26:47;;;;;;;0.38;0.38;;;;;;;8.25;99.65;100904.97;9926494;29;20062;-89
2023/01/04 06:38:58;;;;;;;0.28;0.28;;;;;;;8.39;100.00;100897.56;9789453;30;20067;-87
2023/01/04 06:44:03;;;;;;;0.10;0.10;;;;;;;8.42;99.70;100891.53;9839532;29;20089;-85
2023/01/04 06:49:05;;;;;;;0.20;0.20;;;;;;;8.47;99.88;100910.84;9840315;29;20054;-83
2023/01/04 06:54:10;;;;;;;0.10;0.10;;;;;;;8.49;99.86;100898.72;9851953;29;20075;-83
2023/01/04 06:59:12;;;;;;;0.82;0.45;;;;;;;8.52;100.00;100877.91;9849538;29;20052;-84
2023/01/04 07:04:14;;;;;;;0.90;0.50;;;;;;;8.56;99.79;100884.13;9926181;29;20479;-85
2023/01/04 07:09:17;;;;;;;0.25;0.25;;;;;;;8.57;100.00;100876.34;9927069;29;20062;-83
2023/01/04 07:14:21;;;;;;;1.27;0.40;;;;;;;8.63;100.00;100897.38;9927126;29;20051;-85
2023/01/04 07:19:22;;;;;;;0.50;0.38;;;;;;;8.73;100.00;100889.78;9931074;29;20079;-83
2023/01/04 07:24:24;;;;;;;0.77;0.57;;;;;;;8.74;100.00;100904.63;9929532;29;20296;-84
2023/01/04 07:29:31;;;;;;;0.50;0.40;;;;;;;8.73;100.00;100890.66;9932990;29;20039;-85
2023/01/04 07:34:32;;;;;;;3.35;1.33;;;;;;;8.73;100.00;100892.41;9919385;29;20055;-85
2023/01/04 07:39:34;;;;;;;0.30;0.30;;;;;;;8.75;100.00;100893.31;9926443;29;20150;-85
2023/01/04 07:44:36;;;;;;;0.10;0.10;;;;;;;8.77;100.00;100871.63;9918810;29;20047;-85
2023/01/04 07:49:38;;;;;;;0.65;0.52;;;;;;;8.79;100.00;100861.22;9936766;29;20535;-84
2023/01/04 07:54:39;;;;;;;0.30;0.30;;;;;;;8.83;100.00;100857.84;9954307;29;20543;-84
2023/01/04 07:59:41;;;;;;;0.47;0.35;;;;;;;8.79;100.00;100835.09;9933807;29;21390;-84
2023/01/04 08:04:43;;;;;;;0.17;0.17;;;;;;;8.78;100.00;100833.34;9935709;29;20614;-83
2023/01/04 08:09:44;;;;;;;0.63;0.50;;;;;;;8.84;100.00;100823.03;9943475;29;20043;-83
2023/01/04 08:14:46;;;;;;;0.20;0.20;;;;;;;8.91;100.00;100832.78;9959178;29;20061;-83
2023/01/04 08:19:48;;;;;;;0.30;0.30;;;;;;;8.98;100.00;100832.09;9936107;29;20122;-85
2023/01/04 08:24:49;;;;;;;0.20;0.20;;;;;;;9.00;100.00;100829.53;9931310;29;20535;-86
2023/01/04 08:29:55;;;;;;;0.60;0.40;;;;;;;9.02;100.00;100828.72;9930017;29;20554;-87
2023/01/04 08:35:07;;;;;;;0.20;0.20;;;;;;;9.09;100.00;100834.09;9937349;29;20058;-86
2023/01/04 08:40:10;;;;;;;0.22;0.22;;;;;;;9.17;100.00;100843.88;9927343;29;20054;-87
2023/01/04 08:45:17;;;;;;;0.10;0.10;;;;;;;9.18;100.00;100829.09;9918921;29;20058;-87
2023/01/04 08:50:25;;;;;;;0.20;0.20;;;;;;;9.20;100.00;100846.56;9930370;29;20473;-88
2023/01/04 08:55:27;;;;;;;0.20;0.15;;;;;;;9.23;100.00;100837.91;9900776;29;20507;-85
2023/01/04 09:00:29;;;;;;;0.38;0.38;;;;;;;9.27;100.00;100818.84;9931579;29;20057;-84
2023/01/04 09:05:31;;;;;;;0.20;0.20;;;;;;;9.26;100.00;100837.09;9937811;29;20595;-85
2023/01/04 09:10:38;;;;;;;0.20;0.20;;;;;;;9.29;100.00;100821.47;9931340;29;20043;-84
2023/01/04 09:15:41;;;;;;;0.30;0.30;;;;;;;9.28;100.00;100818.00;9929168;29;20058;-86
2023/01/04 09:20:43;;;;;;;0.25;0.20;;;;;;;9.33;100.00;100818.09;9929391;29;20054;-84
2023/01/04 09:25:44;;;;;;;1.20;0.55;;;;;;;9.34;100.00;100818.13;9928559;29;20451;-85
2023/01/04 09:30:46;;;;;;;0.28;0.20;;;;;;;9.40;100.00;100824.34;9930595;29;21083;-83
2023/01/04 09:35:48;;;;;;;0.20;0.20;;;;;;;9.41;100.00;100811.31;9930902;29;20065;-85
2023/01/04 09:40:57;;;;;;;2.75;0.93;;;;;;;9.47;100.00;100815.78;9929318;29;20180;-86
2023/01/04 09:46:02;;;;;;;;;;;;;;;9.46;100.00;100801.84;9930090;29;20061;-84
2023/01/04 09:51:11;;;;;;;2.35;0.75;;;;;;;9.50;100.00;100805.41;9930855;29;19964;-85
2023/01/04 09:56:22;;;;;;;1.13;0.70;;;;;;;9.52;100.00;100808.94;9929734;29;20511;-84
2023/01/04 10:01:31;;;;;;;0.65;0.65;;;;;;;9.57;100.00;100802.06;9931614;29;20175;-86
2023/01/04 10:06:34;;;;;;;0.20;0.20;;;;;;;9.55;100.00;100788.09;9923771;29;20055;-84
2023/01/04 10:12:09;;;;;;;0.90;0.50;;;;;;;9.63;100.00;100806.56;9937307;29;20061;-84
2023/01/04 10:17:36;;;;;;;0.63;0.50;;;;;;;9.66;100.00;100783.97;9937066;29;20109;-83
2023/01/04 10:23:03;;;;;;;0.40;0.40;;;;;;;9.69;100.00;100784.03;9933755;29;20051;-83
2023/01/04 10:28:30;;;;;;;0.88;0.60;;;;;;;9.72;100.00;100765.78;9930242;29;20460;-84
2023/01/04 10:33:46;;;;;;;0.52;0.32;;;;;;;9.75;100.00;100771.94;9923555;29;20062;-85
2023/01/04 10:39:04;;;;;;;0.50;0.50;;;;;;;9.77;100.00;100775.47;9926817;29;20064;-84
2023/01/04 10:44:22;;;;;;;0.98;0.60;;;;;;;9.82;100.00;100759.03;9928354;29;20107;-86
2023/01/04 10:49:42;;;;;;;0.30;0.30;;;;;;;9.83;100.00;100766.03;9926220;29;20498;-87
2023/01/04 10:55:16;;;;;;;0.35;0.35;;;;;;;9.83;100.00;100752.03;9934091;29;20054;-87
2023/01/04 11:00:29;;;;;;;0.10;0.10;;;;;;;9.89;100.00;100752.16;9910479;29;20063;-86
2023/01/04 11:05:46;;;;;;;0.65;0.50;;;;;;;9.91;100.00;100750.47;9932971;29;20534;-87
2023/01/04 11:10:59;;;;;;;0.95;0.43;;;;;;;9.91;100.00;100755.72;9927963;29;20055;-85
2023/01/04 11:16:03;;;;;;;0.10;0.10;;;;;;;9.96;100.00;100747.94;9936151;29;20413;-84
2023/01/04 11:21:11;;;;;;;0.28;0.28;;;;;;;9.98;100.00;100733.16;9934405;29;20063;-84
2023/01/04 11:26:18;;;;;;;0.10;0.10;;;;;;;10.00;100.00;100729.72;9941393;29;20618;-85
2023/01/04 11:31:27;;;;;;;0.38;0.17;;;;;;;10.02;100.00;100728.00;9934212;29;20195;-86
2023/01/04 11:36:33;;;;;;;0.40;0.40;;;;;;;10.04;100.00;100728.03;9933078;29;20062;-86
2023/01/04 11:41:35;;;;;;;0.10;0.10;;;;;;;10.08;100.00;100722.00;9925667;29;20057;-86
2023/01/04 11:46:37;;;;;;;0.10;0.10;;;;;;;10.08;100.00;100714.16;9933386;29;20047;-87
2023/01/04 11:51:39;;;;;;;0.28;0.25;;;;;;;10.12;100.00;100717.69;9932762;29;20089;-87
2023/01/04 11:57:00;;;;;;;;;;;;;;;10.21;100.00;100715.25;9933217;29;20050;-88
2023/01/04 12:02:22;;;;;;;0.17;0.17;;;;;;;10.22;100.00;100710.06;9930751;29;20394;-86
2023/01/04 12:07:44;;;;;;;0.10;0.10;;;;;;;10.29;100.00;100703.19;9930552;29;20051;-86
2023/01/04 12:12:50;;;;;;;0.20;0.20;;;;;;;10.35;100.00;100695.47;9932527;29;20047;-88
2023/01/04 12:17:57;;;;;;;0.38;0.25;;;;;;;10.38;100.00;100692.88;9933662;29;20139;-87
2023/01/04 12:22:59;;;;;;;0.17;0.17;;;;;;;10.41;100.00;100679.84;9930025;29;20062;-85
2023/01/04 12:28:03;;;;;;;0.20;0.20;;;;;;;10.41;100.00;100673.75;9932715;29;20459;-85
2023/01/04 12:33:29;;;;;;;0.20;0.20;;;;;;;10.40;100.00;100667.66;9939604;29;20145;-84
2023/01/04 12:38:53;;;;;;;0.10;0.10;;;;;;;10.43;100.00;100654.59;9942680;29;20086;-84
2023/01/04 12:43:55;;;;;;;0.98;0.47;;;;;;;10.43;100.00;100666.78;9940036;29;20051;-83
2023/01/04 12:49:02;;;;;;;0.20;0.20;;;;;;;10.46;100.00;100666.84;9948924;29;20058;-85
2023/01/04 12:54:20;;;;;;;0.10;0.10;;;;;;;10.52;100.00;100660.81;9940714;29;20051;-84
2023/01/04 12:59:53;;;;;;;0.10;0.10;;;;;;;10.52;100.00;100650.34;9933341;29;20424;-84
2023/01/04 13:04:57;;;;;;;0.20;0.10;;;;;;;10.52;100.00;100645.09;9911183;29;20055;-87
2023/01/04 13:10:47;;;;;;;0.30;0.30;;;;;;;10.52;100.00;100634.63;9934453;29;20065;-85
2023/01/04 13:16:21;;;;;;;0.10;0.10;;;;;;;10.52;100.00;100639.88;9923367;29;20055;-85
2023/01/04 13:21:28;;;;;;;0.60;0.50;;;;;;;10.53;100.00;100646.88;9929987;29;20078;-86
2023/01/04 13:26:41;;;;;;;0.80;0.30;;;;;;;10.55;100.00;100624.22;9930685;29;20199;-85
2023/01/04 13:31:58;;;;;;;0.38;0.30;;;;;;;10.54;100.00;100627.72;9923289;29;20059;-85
2023/01/04 13:37:17;;;;;;;0.13;0.13;;;;;;;10.55;100.00;100624.22;9933616;29;20059;-84
2023/01/04 13:42:30;;;;;;;0.40;0.30;;;;;;;10.49;100.00;100618.88;9929868;29;20401;-85
2023/01/04 13:47:37;;;;;;;0.43;0.28;;;;;;;10.52;100.00;100614.56;9921546;29;20146;-85
2023/01/04 13:52:43;;;;;;;0.30;0.30;;;;;;;10.52;100.00;100618.94;9928222;29;20051;-85
2023/01/04 13:58:14;;;;;;;0.05;0.05;;;;;;;10.53;100.00;100610.22;9923061;29;20050;-84
2023/01/04 14:03:35;;;;;;;0.30;0.30;;;;;;;10.52;100.00;100618.94;9929070;29;20047;-85
2023/01/04 14:08:55;;;;;;;0.25;0.25;;;;;;;10.51;100.00;100623.31;9929009;29;20050;-85
2023/01/04 14:13:57;;;;;;;0.32;0.32;;;;;;;10.48;100.00;100617.13;9928992;29;20058;-85
2023/01/04 14:19:40;;;;;;;2.67;1.00;;;;;;;10.46;100.00;100627.56;9929893;29;20050;-86
2023/01/04 14:24:41;;;;;;;1.33;0.50;;;;;;;10.43;100.00;100611.81;9930663;29;20286;-85
2023/01/04 14:30:16;;;;;;;0.40;0.35;;;;;;;10.44;100.00;100632.78;9931506;29;20438;-85
2023/01/04 14:35:18;;;;;;;0.60;0.50;;;;;;;10.46;100.00;100629.31;9944982;29;20112;-84
2023/01/04 14:40:27;;;;;;;4.00;1.05;;;;;;;10.35;100.00;100637.88;9943447;29;20138;-84
2023/01/04 14:45:28;;;;;;;1.00;0.52;;;;;;;10.35;100.00;100632.66;9937397;29;20058;-86
2023/01/04 14:50:30;;;;;;;2.00;0.63;;;;;;;10.33;100.00;100634.38;9932938;29;20516;-86
2023/01/04 14:55:32;;;;;;;3.13;0.75;;;;;;;10.33;100.00;100639.59;9930576;29;20065;-85
2023/01/04 15:00:36;;;;;;;3.72;0.75;;;;;;;10.30;100.00;100625.53;9928078;29;20138;-87
2023/01/04 15:05:44;;;;;;;1.33;0.93;;;;;;;10.29;100.00;100623.81;9927452;29;20115;-86
2023/01/04 15:10:48;;;;;;;0.40;0.40;;;;;;;10.30;100.00;100628.16;9921041;29;20134;-88
2023/01/04 15:15:58;;;;;;;0.75;0.52;;;;;;;10.26;100.00;100622.00;9920356;29;20059;-86
2023/01/04 15:21:02;;;;;;;4.18;0.80;;;;;;;10.23;100.00;100633.28;9932817;29;20149;-86
2023/01/04 15:26:09;;;;;;;2.55;0.50;;;;;;;10.18;100.00;100621.03;9939539;29;20577;-87
2023/01/04 15:31:13;;;;;;;2.78;1.05;;;;;;;10.17;100.00;100640.19;9920109;29;20058;-86
2023/01/04 15:36:17;;;;;;;0.32;0.32;;;;;;;10.18;100.00;100634.97;9927054;29;20504;-86
2023/01/04 15:46:45;;;;;;;5.10;1.43;;;;;;;10.09;99.55;100622.63;9919033;29;20398;-86
2023/01/04 15:51:50;;;;;;;1.95;1.02;;;;;;;10.11;99.64;100622.63;9926010;29;20261;-87
2023/01/04 15:56:55;;;;;;;1.48;0.75;;;;;;;10.09;99.54;100630.47;9947602;29;20459;-87
2023/01/04 16:01:58;;;;;;;6.40;0.50;;;;;;;10.07;99.44;100628.66;9923464;29;20063;-86
2023/01/04 16:07:04;;;;;;;1.30;0.98;;;;;;;10.02;99.33;100612.03;9926087;29;20066;-87
2023/01/04 16:12:40;;;;;;;3.75;1.10;;;;;;;9.99;99.23;100620.69;9925035;29;20058;-88
2023/01/04 16:18:33;;;;;;;2.78;0.57;;;;;;;10.00;99.05;100614.63;9922409;29;20057;-91
2023/01/04 16:24:20;;;;;;;0.70;0.50;;;;;;;9.95;98.84;100629.34;9905315;24;20047;-87
2023/01/04 16:29:47;;;;;;;5.35;1.08;;;;;;;9.89;98.83;100643.22;9942630;29;20051;-83
2023/01/04 16:34:49;;;;;;;2.28;0.77;;;;;;;9.86;98.80;100629.19;9953586;29;20528;-85
2023/01/04 16:39:51;;;;;;;1.15;0.85;;;;;;;9.84;98.79;100643.97;9938884;29;20078;-86
2023/01/04 16:45:10;;;;;;;3.13;1.05;;;;;;;9.84;98.74;100633.53;9948809;29;20153;-85
2023/01/04 16:50:12;;;;;;;3.13;1.63;;;;;;;9.88;98.98;100643.19;9936444;29;20062;-84
2023/01/04 16:55:14;;;;;;;1.48;0.73;;;;;;;9.90;98.73;100623.16;9965396;29;20168;-85
2023/01/04 17:00:24;;;;;;;4.63;1.85;;;;;;;9.94;98.75;100616.22;9939389;29;20134;-82
2023/01/04 17:05:25;;;;;;;3.67;0.85;;;;;;;10.03;98.56;100634.72;9939917;29;20111;-85
2023/01/04 17:10:27;;;;;;;1.27;0.47;;;;;;;9.93;98.29;100633.66;9917364;29;20047;-84
2023/01/04 17:15:30;;;;;;;3.78;1.63;;;;;;;9.84;98.06;100626.53;9929845;29;20093;-85
2023/01/04 17:20:51;;;;;;;0.47;0.35;;;;;;;9.77;97.89;100636.88;9936094;29;20055;-84
2023/01/04 17:25:53;;;;;;;3.38;0.65;;;;;;;9.70;97.78;100615.84;9939515;29;20061;-83
2023/01/04 17:30:57;;;;;;;0.73;0.73;;;;;;;9.66;97.74;100614.03;9934738;29;20062;-84
2023/01/04 17:36:07;;;;;;;6.18;1.60;;;;;;;9.65;97.64;100621.84;9942262;29;20607;-83
2023/01/04 17:41:10;;;;;;;;;;;;;;;9.67;97.49;100621.03;9951002;29;20069;-86
2023/01/04 17:46:15;;;;;;;9.27;1.70;;;;;;;9.71;97.63;100622.84;9960175;29;20343;-86
2023/01/04 17:51:24;;;;;;;6.97;1.77;;;;;;;9.75;97.38;100615.06;9952170;29;20327;-85
2023/01/04 17:56:28;;;;;;;2.63;1.75;;;;;;;9.73;97.20;100608.06;9937931;29;20054;-86
2023/01/04 18:01:30;;;;;;;2.72;1.10;;;;;;;9.83;96.83;100618.66;9942615;29;20092;-86
2023/01/04 18:06:35;;;;;;;11.43;2.75;;;;;;;9.85;96.64;100624.81;9958438;29;20123;-85
2023/01/04 18:11:37;;;;;;;3.47;1.25;;;;;;;9.80;96.41;100619.50;9949242;29;20043;-85
2023/01/04 18:16:54;;;;;;;2.40;0.98;;;;;;;9.81;96.27;100602.94;9931022;29;20084;-85
2023/01/04 18:21:57;;;;;;;2.28;0.38;;;;;;;9.89;96.25;100624.00;9938629;29;20054;-85
2023/01/04 18:27:00;;;;;;;1.27;0.60;;;;;;;9.98;96.32;100620.66;9915459;29;20354;-84
2023/01/04 18:32:24;;;;;;;2.83;1.30;;;;;;;9.88;95.82;100609.19;9957681;29;20058;-84
2023/01/04 18:37:26;;;;;;;4.78;0.80;;;;;;;9.72;96.02;100608.91;9943208;29;20050;-83
2023/01/04 18:42:28;;;;;;;6.72;0.50;;;;;;;9.69;96.14;100613.22;9961694;29;20122;-83
2023/01/04 18:47:31;;;;;;;2.72;1.10;;;;;;;9.67;96.33;100591.41;9930784;29;20077;-83
2023/01/04 18:52:34;;;;;;;7.72;0.75;;;;;;;9.65;96.40;100580.91;9932426;29;20583;-83
2023/01/04 18:57:38;;;;;;;0.50;0.45;;;;;;;9.75;96.62;100591.53;9944823;29;20151;-83
2023/01/04 19:02:40;;;;;;;1.55;0.45;;;;;;;9.87;96.40;100596.97;9963291;29;20062;-84
2023/01/04 19:07:42;;;;;;;0.40;0.40;;;;;;;9.82;96.18;100606.47;9949882;29;20242;-83
2023/01/04 19:12:44;;;;;;;8.70;1.85;;;;;;;9.65;95.83;100606.16;9950932;29;20066;-83
2023/01/04 19:17:45;;;;;;;3.40;1.52;;;;;;;9.55;95.75;100602.50;9960075;29;20055;-84
2023/01/04 19:22:47;;;;;;;5.60;2.10;;;;;;;9.50;95.76;100607.66;9942996;29;20050;-84
2023/01/04 19:27:48;;;;;;;3.05;0.77;;;;;;;9.52;96.05;100597.22;9953553;29;20051;-82
2023/01/04 19:32:50;;;;;;;1.00;0.40;;;;;;;9.57;96.04;100600.78;9960195;29;20058;-85
2023/01/04 19:37:52;;;;;;;0.20;0.20;;;;;;;9.65;95.78;100606.16;9947433;29;20047;-84
2023/01/04 19:42:54;;;;;;;1.17;0.40;;;;;;;9.67;95.66;100609.69;9949515;29;20930;-85
2023/01/04 19:47:56;;;;;;;3.53;0.30;;;;;;;9.60;95.54;100637.44;9958222;29;20152;-86
2023/01/04 19:52:59;;;;;;;0.98;0.43;;;;;;;9.64;95.52;100625.31;9950731;29;20074;-85
2023/01/04 19:58:13;;;;;;;4.25;1.08;;;;;;;9.64;95.10;100626.19;9946890;29;20534;-87
2023/01/04 20:03:41;;;;;;;8.32;0.50;;;;;;;9.63;94.76;100623.56;9926461;29;20196;-87
2023/01/04 20:09:14;;;;;;;6.82;0.93;;;;;;;9.55;94.15;100623.41;9934769;29;20047;-88
2023/01/04 20:43:32;;;;;;;1.85;0.57;;;;;;;9.31;93.10;100663.91;11032541;24;20072;-85
2023/01/04 20:48:39;;;;;;;1.70;0.40;;;;;;;9.23;93.42;100672.44;9935036;29;20880;-83
2023/01/04 20:53:41;;;;;;;1.38;0.40;;;;;;;9.10;93.77;100668.69;9900261;29;20047;-84
2023/01/04 20:58:44;;;;;;;5.18;1.38;;;;;;;9.04;94.38;100664.22;9902342;29;20138;-83
2023/01/04 21:03:46;;;;;;;2.08;0.90;;;;;;;8.96;94.80;100660.53;9887287;29;20051;-83
2023/01/04 21:08:51;;;;;;;4.45;1.17;;;;;;;8.95;95.35;100661.41;9880427;29;20147;-83
2023/01/04 21:13:52;;;;;;;5.15;0.80;;;;;;;8.93;95.42;100666.59;9863316;29;20573;-83
2023/01/04 21:18:54;;;;;;;2.92;1.45;;;;;;;8.93;95.70;100655.25;9865624;29;20481;-82
2023/01/04 21:23:56;;;;;;;0.30;0.30;;;;;;;8.93;96.07;100665.69;9867846;29;20308;-83
2023/01/04 21:28:58;;;;;;;3.72;1.30;;;;;;;9.03;96.17;100673.75;9876272;29;20142;-83
2023/01/04 21:34:00;;;;;;;1.05;0.55;;;;;;;9.05;96.14;100665.09;9908363;29;20062;-84
2023/01/04 21:39:06;;;;;;;1.48;1.15;;;;;;;9.09;96.02;100669.53;9911580;29;20051;-84
2023/01/04 21:44:07;;;;;;;3.28;0.93;;;;;;;9.09;96.02;100661.69;9914284;29;20058;-83
2023/01/04 21:49:10;;;;;;;4.18;1.15;;;;;;;9.11;95.87;100680.88;9913302;29;20054;-84
2023/01/04 21:54:12;;;;;;;2.70;0.60;;;;;;;9.15;95.95;100677.50;9907596;29;20484;-84
2023/01/04 21:59:14;;;;;;;1.73;0.70;;;;;;;9.11;95.83;100683.50;9900835;29;20051;-86
2023/01/04 22:04:16;;;;;;;3.67;1.23;;;;;;;9.13;95.58;100681.81;9894838;29;20366;-87
2023/01/04 22:09:21;;;;;;;7.90;0.80;;;;;;;9.15;95.67;100698.41;9892841;29;20078;-86
2023/01/04 22:14:24;;;;;;;0.30;0.30;;;;;;;9.16;95.35;100697.56;9890599;29;20079;-87
2023/01/04 22:19:26;;;;;;;2.38;0.95;;;;;;;9.21;95.39;100690.69;9892023;29;20478;-87
2023/01/04 22:24:31;;;;;;;6.32;0.88;;;;;;;9.22;94.98;100694.16;9891969;29;20059;-87
2023/01/04 22:30:16;;;;;;;4.07;1.20;;;;;;;9.18;94.90;100729.81;9946242;24;20065;-87
2023/01/04 22:35:34;;;;;;;0.52;0.50;;;;;;;9.16;94.81;100726.28;9910062;29;20132;-88
2023/01/04 22:41:09;;;;;;;2.45;0.70;;;;;;;9.02;95.22;100732.09;9921577;29;20065;-85
2023/01/04 22:46:14;;;;;;;2.95;0.82;;;;;;;8.94;95.15;100731.00;9899402;29;20066;-87
2023/01/04 22:51:18;;;;;;;2.45;0.40;;;;;;;8.91;95.45;100736.16;9905329;29;20062;-87
2023/01/04 22:56:25;;;;;;;1.27;0.43;;;;;;;8.88;95.81;100741.31;9906558;29;20464;-85
2023/01/04 23:01:30;;;;;;;0.40;0.40;;;;;;;8.83;96.11;100740.34;9909139;29;20059;-84
2023/01/04 23:06:32;;;;;;;2.08;1.05;;;;;;;8.86;96.17;100745.63;9911715;29;20138;-82
2023/01/04 23:11:37;;;;;;;4.82;1.20;;;;;;;8.87;96.18;100743.91;9914611;29;20491;-83
2023/01/04 23:16:38;;;;;;;0.45;0.32;;;;;;;8.89;96.23;100750.94;9915411;29;20047;-83
2023/01/04 23:21:41;;;;;;;2.60;0.80;;;;;;;8.94;96.35;100759.75;9909031;29;20063;-84
2023/01/04 23:26:43;;;;;;;5.13;0.68;;;;;;;8.94;96.04;100759.75;9897647;29;20047;-84
2023/01/04 23:31:45;;;;;;;0.52;0.47;;;;;;;8.92;95.92;100764.06;9891433;29;20071;-84
2023/01/04 23:36:46;;;;;;;4.30;1.15;;;;;;;8.97;95.79;100782.44;9899171;29;20463;-86
2023/01/04 23:41:52;;;;;;;4.63;1.40;;;;;;;8.94;95.56;100777.16;9890695;29;20079;-85
2023/01/04 23:59:53;;;;;;;2.55;0.85;;;;;;;8.87;95.18;100786.56;9893153;29;20085;-86
